sensor_id;sensor_type;location;lat;lon;timestamp;temperature;humidity
60473;DHT22;46318;52.716;6.444;2024-03-17T00:00:03;4.60;97.90
60473;DHT22;46318;52.716;6.444;2024-03-17T00:02:33;4.60;97.90
60473;DHT22;46318;52.716;6.444;2024-03-17T00:05:00;4.60;98.00
60473;DHT22;46318;52.716;6.444;2024-03-17T00:07:25;4.60;98.20
60473;DHT22;46318;52.716;6.444;2024-03-17T00:09:51;4.60;98.30
60473;DHT22;46318;52.716;6.444;2024-03-17T00:12:17;4.50;98.50
60473;DHT22;46318;52.716;6.444;2024-03-17T00:14:43;4.50;98.60
60473;DHT22;46318;52.716;6.444;2024-03-17T00:17:10;4.50;98.50
60473;DHT22;46318;52.716;6.444;2024-03-17T00:19:40;4.50;98.70
60473;DHT22;46318;52.716;6.444;2024-03-17T00:22:06;4.40;98.80
60473;DHT22;46318;52.716;6.444;2024-03-17T00:24:35;4.50;98.90
60473;DHT22;46318;52.716;6.444;2024-03-17T00:27:01;4.40;99.10
60473;DHT22;46318;52.716;6.444;2024-03-17T00:29:28;4.40;99.10
60473;DHT22;46318;52.716;6.444;2024-03-17T00:31:54;4.40;99.10
60473;DHT22;46318;52.716;6.444;2024-03-17T00:34:23;4.40;99.20
60473;DHT22;46318;52.716;6.444;2024-03-17T00:36:49;4.40;99.30
60473;DHT22;46318;52.716;6.444;2024-03-17T00:39:17;4.40;99.40
60473;DHT22;46318;52.716;6.444;2024-03-17T00:41:44;4.40;99.40
60473;DHT22;46318;52.716;6.444;2024-03-17T00:44:10;4.40;99.40
60473;DHT22;46318;52.716;6.444;2024-03-17T00:46:36;4.30;99.40
60473;DHT22;46318;52.716;6.444;2024-03-17T00:49:02;4.30;99.50
60473;DHT22;46318;52.716;6.444;2024-03-17T00:51:28;4.30;99.60
60473;DHT22;46318;52.716;6.444;2024-03-17T00:53:54;4.20;99.60
60473;DHT22;46318;52.716;6.444;2024-03-17T00:56:22;4.20;99.60
60473;DHT22;46318;52.716;6.444;2024-03-17T00:58:48;4.20;99.70
60473;DHT22;46318;52.716;6.444;2024-03-17T01:01:17;4.20;99.70
60473;DHT22;46318;52.716;6.444;2024-03-17T01:03:45;4.20;99.80
60473;DHT22;46318;52.716;6.444;2024-03-17T01:06:11;4.20;99.80
60473;DHT22;46318;52.716;6.444;2024-03-17T01:08:37;4.20;99.80
60473;DHT22;46318;52.716;6.444;2024-03-17T01:11:03;4.10;99.80
60473;DHT22;46318;52.716;6.444;2024-03-17T01:13:32;4.10;99.90
60473;DHT22;46318;52.716;6.444;2024-03-17T01:15:59;4.10;100.00
60473;DHT22;46318;52.716;6.444;2024-03-17T01:18:28;4.10;100.00
60473;DHT22;46318;52.716;6.444;2024-03-17T01:20:54;4.10;100.00
60473;DHT22;46318;52.716;6.444;2024-03-17T01:23:19;4.10;100.00
60473;DHT22;46318;52.716;6.444;2024-03-17T01:25:45;4.00;100.00
60473;DHT22;46318;52.716;6.444;2024-03-17T01:28:11;4.00;100.00
60473;DHT22;46318;52.716;6.444;2024-03-17T01:30:38;4.00;100.00
60473;DHT22;46318;52.716;6.444;2024-03-17T01:33:05;4.00;100.00
60473;DHT22;46318;52.716;6.444;2024-03-17T01:35:31;4.00;100.00
60473;DHT22;46318;52.716;6.444;2024-03-17T01:37:57;4.00;100.00
60473;DHT22;46318;52.716;6.444;2024-03-17T01:40:23;4.00;100.00
60473;DHT22;46318;52.716;6.444;2024-03-17T01:42:48;4.00;100.00
60473;DHT22;46318;52.716;6.444;2024-03-17T01:47:49;3.90;100.00
60473;DHT22;46318;52.716;6.444;2024-03-17T01:50:15;3.90;100.00
60473;DHT22;46318;52.716;6.444;2024-03-17T01:52:46;3.90;100.00
60473;DHT22;46318;52.716;6.444;2024-03-17T01:55:12;3.90;100.00
60473;DHT22;46318;52.716;6.444;2024-03-17T01:57:38;3.90;100.00
60473;DHT22;46318;52.716;6.444;2024-03-17T02:00:06;3.80;100.00
60473;DHT22;46318;52.716;6.444;2024-03-17T02:02:34;3.80;100.00
60473;DHT22;46318;52.716;6.444;2024-03-17T02:05:01;3.80;100.00
60473;DHT22;46318;52.716;6.444;2024-03-17T02:07:28;3.80;100.00
60473;DHT22;46318;52.716;6.444;2024-03-17T02:09:56;3.70;100.00
60473;DHT22;46318;52.716;6.444;2024-03-17T02:12:23;3.80;100.00
60473;DHT22;46318;52.716;6.444;2024-03-17T02:14:49;3.70;100.00
60473;DHT22;46318;52.716;6.444;2024-03-17T02:17:15;3.70;100.00
60473;DHT22;46318;52.716;6.444;2024-03-17T02:19:41;3.70;100.00
60473;DHT22;46318;52.716;6.444;2024-03-17T02:22:14;3.70;100.00
60473;DHT22;46318;52.716;6.444;2024-03-17T02:24:43;3.60;100.00
60473;DHT22;46318;52.716;6.444;2024-03-17T02:27:10;3.60;100.00
60473;DHT22;46318;52.716;6.444;2024-03-17T02:29:36;3.60;100.00
60473;DHT22;46318;52.716;6.444;2024-03-17T02:32:03;3.60;100.00
60473;DHT22;46318;52.716;6.444;2024-03-17T02:34:35;3.60;100.00
60473;DHT22;46318;52.716;6.444;2024-03-17T02:37:03;3.50;100.00
60473;DHT22;46318;52.716;6.444;2024-03-17T02:39:30;3.50;100.00
60473;DHT22;46318;52.716;6.444;2024-03-17T02:42:03;3.50;100.00
60473;DHT22;46318;52.716;6.444;2024-03-17T02:44:34;3.50;100.00
60473;DHT22;46318;52.716;6.444;2024-03-17T02:47:01;3.50;100.00
60473;DHT22;46318;52.716;6.444;2024-03-17T02:49:30;3.50;100.00
60473;DHT22;46318;52.716;6.444;2024-03-17T02:52:05;3.50;100.00
60473;DHT22;46318;52.716;6.444;2024-03-17T02:54:38;3.40;100.00
60473;DHT22;46318;52.716;6.444;2024-03-17T02:57:05;3.40;100.00
60473;DHT22;46318;52.716;6.444;2024-03-17T02:59:32;3.40;100.00
60473;DHT22;46318;52.716;6.444;2024-03-17T03:01:59;3.40;100.00
60473;DHT22;46318;52.716;6.444;2024-03-17T03:04:26;3.40;100.00
60473;DHT22;46318;52.716;6.444;2024-03-17T03:06:52;3.40;100.00
60473;DHT22;46318;52.716;6.444;2024-03-17T03:09:18;3.40;100.00
60473;DHT22;46318;52.716;6.444;2024-03-17T03:11:56;3.40;100.00
60473;DHT22;46318;52.716;6.444;2024-03-17T03:14:27;3.40;100.00
60473;DHT22;46318;52.716;6.444;2024-03-17T03:16:52;3.40;100.00
60473;DHT22;46318;52.716;6.444;2024-03-17T03:19:18;3.40;100.00
60473;DHT22;46318;52.716;6.444;2024-03-17T03:21:47;3.30;100.00
60473;DHT22;46318;52.716;6.444;2024-03-17T03:24:16;3.30;100.00
60473;DHT22;46318;52.716;6.444;2024-03-17T03:26:43;3.40;100.00
60473;DHT22;46318;52.716;6.444;2024-03-17T03:29:10;3.40;100.00
60473;DHT22;46318;52.716;6.444;2024-03-17T03:31:36;3.30;100.00
60473;DHT22;46318;52.716;6.444;2024-03-17T03:34:04;3.30;100.00
60473;DHT22;46318;52.716;6.444;2024-03-17T03:36:33;3.30;100.00
60473;DHT22;46318;52.716;6.444;2024-03-17T03:39:00;3.40;100.00
60473;DHT22;46318;52.716;6.444;2024-03-17T03:41:25;3.30;100.00
60473;DHT22;46318;52.716;6.444;2024-03-17T03:43:52;3.30;100.00
60473;DHT22;46318;52.716;6.444;2024-03-17T03:46:19;3.40;100.00
60473;DHT22;46318;52.716;6.444;2024-03-17T03:48:46;3.40;100.00
60473;DHT22;46318;52.716;6.444;2024-03-17T03:51:12;3.30;100.00
60473;DHT22;46318;52.716;6.444;2024-03-17T03:53:38;3.30;100.00
60473;DHT22;46318;52.716;6.444;2024-03-17T03:56:05;3.30;100.00
60473;DHT22;46318;52.716;6.444;2024-03-17T03:58:36;3.30;100.00
60473;DHT22;46318;52.716;6.444;2024-03-17T04:01:06;3.30;100.00
60473;DHT22;46318;52.716;6.444;2024-03-17T04:03:34;3.30;100.00
60473;DHT22;46318;52.716;6.444;2024-03-17T04:06:08;3.30;100.00
60473;DHT22;46318;52.716;6.444;2024-03-17T04:08:37;3.30;100.00
60473;DHT22;46318;52.716;6.444;2024-03-17T04:11:05;3.30;100.00
60473;DHT22;46318;52.716;6.444;2024-03-17T04:13:31;3.30;100.00
60473;DHT22;46318;52.716;6.444;2024-03-17T04:15:58;3.40;100.00
60473;DHT22;46318;52.716;6.444;2024-03-17T04:18:28;3.40;100.00
60473;DHT22;46318;52.716;6.444;2024-03-17T04:20:58;3.40;100.00
60473;DHT22;46318;52.716;6.444;2024-03-17T04:23:27;3.40;100.00
60473;DHT22;46318;52.716;6.444;2024-03-17T04:25:53;3.40;100.00
60473;DHT22;46318;52.716;6.444;2024-03-17T04:28:19;3.40;100.00
60473;DHT22;46318;52.716;6.444;2024-03-17T04:30:45;3.40;100.00
60473;DHT22;46318;52.716;6.444;2024-03-17T04:33:14;3.40;100.00
60473;DHT22;46318;52.716;6.444;2024-03-17T04:35:40;3.40;100.00
60473;DHT22;46318;52.716;6.444;2024-03-17T04:38:09;3.40;100.00
60473;DHT22;46318;52.716;6.444;2024-03-17T04:40:40;3.40;100.00
60473;DHT22;46318;52.716;6.444;2024-03-17T04:43:07;3.40;100.00
60473;DHT22;46318;52.716;6.444;2024-03-17T04:45:33;3.50;100.00
60473;DHT22;46318;52.716;6.444;2024-03-17T04:47:59;3.50;100.00
60473;DHT22;46318;52.716;6.444;2024-03-17T04:50:25;3.50;100.00
60473;DHT22;46318;52.716;6.444;2024-03-17T04:52:52;3.50;100.00
60473;DHT22;46318;52.716;6.444;2024-03-17T04:55:17;3.50;100.00
60473;DHT22;46318;52.716;6.444;2024-03-17T04:57:47;3.50;100.00
60473;DHT22;46318;52.716;6.444;2024-03-17T05:00:13;3.50;100.00
60473;DHT22;46318;52.716;6.444;2024-03-17T05:02:40;3.50;100.00
60473;DHT22;46318;52.716;6.444;2024-03-17T05:05:06;3.60;100.00
60473;DHT22;46318;52.716;6.444;2024-03-17T05:07:34;3.60;100.00
60473;DHT22;46318;52.716;6.444;2024-03-17T05:10:00;3.60;100.00
60473;DHT22;46318;52.716;6.444;2024-03-17T05:12:26;3.60;100.00
60473;DHT22;46318;52.716;6.444;2024-03-17T05:14:52;3.60;100.00
60473;DHT22;46318;52.716;6.444;2024-03-17T05:17:18;3.60;100.00
60473;DHT22;46318;52.716;6.444;2024-03-17T05:19:44;3.60;100.00
60473;DHT22;46318;52.716;6.444;2024-03-17T05:22:09;3.70;100.00
60473;DHT22;46318;52.716;6.444;2024-03-17T05:24:36;3.70;100.00
60473;DHT22;46318;52.716;6.444;2024-03-17T05:27:02;3.70;100.00
60473;DHT22;46318;52.716;6.444;2024-03-17T05:29:29;3.70;100.00
60473;DHT22;46318;52.716;6.444;2024-03-17T05:31:55;3.70;100.00
60473;DHT22;46318;52.716;6.444;2024-03-17T05:34:21;3.70;100.00
60473;DHT22;46318;52.716;6.444;2024-03-17T05:36:50;3.70;100.00
60473;DHT22;46318;52.716;6.444;2024-03-17T05:39:16;3.80;100.00
60473;DHT22;46318;52.716;6.444;2024-03-17T05:41:42;3.80;100.00
60473;DHT22;46318;52.716;6.444;2024-03-17T05:44:09;3.80;100.00
60473;DHT22;46318;52.716;6.444;2024-03-17T05:46:35;3.80;100.00
60473;DHT22;46318;52.716;6.444;2024-03-17T05:49:01;3.80;100.00
60473;DHT22;46318;52.716;6.444;2024-03-17T05:51:29;3.80;100.00
60473;DHT22;46318;52.716;6.444;2024-03-17T05:53:54;3.90;100.00
60473;DHT22;46318;52.716;6.444;2024-03-17T05:56:21;3.90;100.00
60473;DHT22;46318;52.716;6.444;2024-03-17T05:58:48;3.90;100.00
60473;DHT22;46318;52.716;6.444;2024-03-17T06:01:14;3.90;100.00
60473;DHT22;46318;52.716;6.444;2024-03-17T06:03:40;3.90;100.00
60473;DHT22;46318;52.716;6.444;2024-03-17T06:06:09;4.00;100.00
60473;DHT22;46318;52.716;6.444;2024-03-17T06:08:38;4.00;100.00
60473;DHT22;46318;52.716;6.444;2024-03-17T06:11:06;4.00;100.00
60473;DHT22;46318;52.716;6.444;2024-03-17T06:13:33;4.00;100.00
60473;DHT22;46318;52.716;6.444;2024-03-17T06:16:02;4.00;100.00
60473;DHT22;46318;52.716;6.444;2024-03-17T06:18:29;4.00;100.00
60473;DHT22;46318;52.716;6.444;2024-03-17T06:20:55;4.00;100.00
60473;DHT22;46318;52.716;6.444;2024-03-17T06:23:24;4.00;100.00
60473;DHT22;46318;52.716;6.444;2024-03-17T06:25:52;4.10;100.00
60473;DHT22;46318;52.716;6.444;2024-03-17T06:28:19;4.10;100.00
60473;DHT22;46318;52.716;6.444;2024-03-17T06:30:57;4.10;100.00
60473;DHT22;46318;52.716;6.444;2024-03-17T06:33:29;4.10;100.00
60473;DHT22;46318;52.716;6.444;2024-03-17T06:35:57;4.10;100.00
60473;DHT22;46318;52.716;6.444;2024-03-17T06:38:23;4.10;100.00
60473;DHT22;46318;52.716;6.444;2024-03-17T06:40:50;4.20;100.00
60473;DHT22;46318;52.716;6.444;2024-03-17T06:43:17;4.20;100.00
60473;DHT22;46318;52.716;6.444;2024-03-17T06:45:43;4.20;100.00
60473;DHT22;46318;52.716;6.444;2024-03-17T06:48:09;4.20;100.00
60473;DHT22;46318;52.716;6.444;2024-03-17T06:50:38;4.30;100.00
60473;DHT22;46318;52.716;6.444;2024-03-17T06:53:06;4.30;100.00
60473;DHT22;46318;52.716;6.444;2024-03-17T06:55:34;4.30;100.00
60473;DHT22;46318;52.716;6.444;2024-03-17T06:58:00;4.30;100.00
60473;DHT22;46318;52.716;6.444;2024-03-17T07:00:25;4.40;100.00
60473;DHT22;46318;52.716;6.444;2024-03-17T07:02:51;4.40;100.00
60473;DHT22;46318;52.716;6.444;2024-03-17T07:05:17;4.40;100.00
60473;DHT22;46318;52.716;6.444;2024-03-17T07:07:44;4.40;100.00
60473;DHT22;46318;52.716;6.444;2024-03-17T07:10:11;4.50;100.00
60473;DHT22;46318;52.716;6.444;2024-03-17T07:12:40;4.50;100.00
60473;DHT22;46318;52.716;6.444;2024-03-17T07:15:07;4.50;100.00
60473;DHT22;46318;52.716;6.444;2024-03-17T07:17:34;4.60;100.00
60473;DHT22;46318;52.716;6.444;2024-03-17T07:20:00;4.60;100.00
60473;DHT22;46318;52.716;6.444;2024-03-17T07:22:27;4.60;100.00
60473;DHT22;46318;52.716;6.444;2024-03-17T07:24:53;4.70;100.00
60473;DHT22;46318;52.716;6.444;2024-03-17T07:27:22;4.70;100.00
60473;DHT22;46318;52.716;6.444;2024-03-17T07:29:50;4.70;100.00
60473;DHT22;46318;52.716;6.444;2024-03-17T07:32:16;4.70;100.00
60473;DHT22;46318;52.716;6.444;2024-03-17T07:34:42;4.80;100.00
60473;DHT22;46318;52.716;6.444;2024-03-17T07:37:08;4.80;100.00
60473;DHT22;46318;52.716;6.444;2024-03-17T07:39:37;4.90;100.00
60473;DHT22;46318;52.716;6.444;2024-03-17T07:42:03;5.00;100.00
60473;DHT22;46318;52.716;6.444;2024-03-17T07:44:39;5.00;100.00
60473;DHT22;46318;52.716;6.444;2024-03-17T07:47:05;5.10;100.00
60473;DHT22;46318;52.716;6.444;2024-03-17T07:49:31;5.20;100.00
60473;DHT22;46318;52.716;6.444;2024-03-17T07:51:57;5.30;100.00
60473;DHT22;46318;52.716;6.444;2024-03-17T07:54:26;5.30;100.00
60473;DHT22;46318;52.716;6.444;2024-03-17T07:56:53;5.40;100.00
60473;DHT22;46318;52.716;6.444;2024-03-17T07:59:41;5.50;100.00
60473;DHT22;46318;52.716;6.444;2024-03-17T08:02:08;5.60;100.00
60473;DHT22;46318;52.716;6.444;2024-03-17T08:04:34;5.70;100.00
60473;DHT22;46318;52.716;6.444;2024-03-17T08:07:00;5.80;100.00
60473;DHT22;46318;52.716;6.444;2024-03-17T08:09:26;5.90;100.00
60473;DHT22;46318;52.716;6.444;2024-03-17T08:11:52;5.90;100.00
60473;DHT22;46318;52.716;6.444;2024-03-17T08:14:18;6.00;100.00
60473;DHT22;46318;52.716;6.444;2024-03-17T08:16:43;6.00;100.00
60473;DHT22;46318;52.716;6.444;2024-03-17T08:19:09;6.00;100.00
60473;DHT22;46318;52.716;6.444;2024-03-17T08:21:35;6.10;100.00
60473;DHT22;46318;52.716;6.444;2024-03-17T08:24:01;6.10;100.00
60473;DHT22;46318;52.716;6.444;2024-03-17T08:26:27;6.20;100.00
60473;DHT22;46318;52.716;6.444;2024-03-17T08:28:53;6.20;100.00
60473;DHT22;46318;52.716;6.444;2024-03-17T08:31:18;6.30;100.00
60473;DHT22;46318;52.716;6.444;2024-03-17T08:33:44;6.30;100.00
60473;DHT22;46318;52.716;6.444;2024-03-17T08:36:10;6.40;100.00
60473;DHT22;46318;52.716;6.444;2024-03-17T08:38:37;6.50;100.00
60473;DHT22;46318;52.716;6.444;2024-03-17T08:41:09;6.60;100.00
60473;DHT22;46318;52.716;6.444;2024-03-17T08:43:36;6.60;100.00
60473;DHT22;46318;52.716;6.444;2024-03-17T08:46:09;6.70;100.00
60473;DHT22;46318;52.716;6.444;2024-03-17T08:48:37;6.70;100.00
60473;DHT22;46318;52.716;6.444;2024-03-17T08:51:13;6.90;100.00
60473;DHT22;46318;52.716;6.444;2024-03-17T08:54:21;6.90;100.00
60473;DHT22;46318;52.716;6.444;2024-03-17T08:56:46;7.10;100.00
60473;DHT22;46318;52.716;6.444;2024-03-17T08:59:13;7.20;100.00
60473;DHT22;46318;52.716;6.444;2024-03-17T09:01:45;7.20;100.00
60473;DHT22;46318;52.716;6.444;2024-03-17T09:04:11;7.30;100.00
60473;DHT22;46318;52.716;6.444;2024-03-17T09:06:46;7.40;100.00
60473;DHT22;46318;52.716;6.444;2024-03-17T09:09:32;7.50;100.00
60473;DHT22;46318;52.716;6.444;2024-03-17T09:12:18;7.60;100.00
60473;DHT22;46318;52.716;6.444;2024-03-17T09:18:13;7.70;99.80
60473;DHT22;46318;52.716;6.444;2024-03-17T09:20:59;7.80;99.50
60473;DHT22;46318;52.716;6.444;2024-03-17T09:23:48;7.80;99.00
60473;DHT22;46318;52.716;6.444;2024-03-17T09:26:34;7.90;98.70
60473;DHT22;46318;52.716;6.444;2024-03-17T09:29:03;7.90;98.80
60473;DHT22;46318;52.716;6.444;2024-03-17T09:31:32;8.00;98.40
60473;DHT22;46318;52.716;6.444;2024-03-17T09:34:01;8.00;97.70
60473;DHT22;46318;52.716;6.444;2024-03-17T09:36:28;8.10;98.00
60473;DHT22;46318;52.716;6.444;2024-03-17T09:38:53;8.20;97.70
60473;DHT22;46318;52.716;6.444;2024-03-17T09:41:24;8.20;96.80
60473;DHT22;46318;52.716;6.444;2024-03-17T09:43:56;8.30;95.60
60473;DHT22;46318;52.716;6.444;2024-03-17T09:46:24;8.30;95.60
60473;DHT22;46318;52.716;6.444;2024-03-17T09:48:51;8.40;95.10
60473;DHT22;46318;52.716;6.444;2024-03-17T09:51:20;8.50;94.80
60473;DHT22;46318;52.716;6.444;2024-03-17T09:53:47;8.60;94.50
60473;DHT22;46318;52.716;6.444;2024-03-17T09:56:14;8.70;94.20
60473;DHT22;46318;52.716;6.444;2024-03-17T09:58:48;8.80;93.70
60473;DHT22;46318;52.716;6.444;2024-03-17T10:01:15;8.80;93.60
60473;DHT22;46318;52.716;6.444;2024-03-17T10:03:48;8.90;92.80
60473;DHT22;46318;52.716;6.444;2024-03-17T10:06:21;9.00;92.00
60473;DHT22;46318;52.716;6.444;2024-03-17T10:08:59;9.10;92.00
60473;DHT22;46318;52.716;6.444;2024-03-17T10:11:33;9.10;91.60
60473;DHT22;46318;52.716;6.444;2024-03-17T10:14:05;9.20;91.70
60473;DHT22;46318;52.716;6.444;2024-03-17T10:16:37;9.30;91.20
60473;DHT22;46318;52.716;6.444;2024-03-17T10:19:11;9.40;90.70
60473;DHT22;46318;52.716;6.444;2024-03-17T10:21:43;9.50;90.00
60473;DHT22;46318;52.716;6.444;2024-03-17T10:24:18;9.50;88.90
60473;DHT22;46318;52.716;6.444;2024-03-17T10:26:47;9.50;89.00
60473;DHT22;46318;52.716;6.444;2024-03-17T10:29:29;9.60;87.90
60473;DHT22;46318;52.716;6.444;2024-03-17T10:32:13;9.60;87.60
60473;DHT22;46318;52.716;6.444;2024-03-17T10:34:40;9.70;87.20
60473;DHT22;46318;52.716;6.444;2024-03-17T10:37:15;9.70;87.30
60473;DHT22;46318;52.716;6.444;2024-03-17T10:39:50;9.70;86.70
60473;DHT22;46318;52.716;6.444;2024-03-17T10:42:24;9.70;85.70
60473;DHT22;46318;52.716;6.444;2024-03-17T10:44:54;9.70;85.70
60473;DHT22;46318;52.716;6.444;2024-03-17T10:47:25;9.80;86.20
60473;DHT22;46318;52.716;6.444;2024-03-17T10:49:54;9.80;86.50
60473;DHT22;46318;52.716;6.444;2024-03-17T10:52:22;9.90;84.40
60473;DHT22;46318;52.716;6.444;2024-03-17T10:54:52;9.90;83.90
60473;DHT22;46318;52.716;6.444;2024-03-17T10:57:31;9.90;82.80
60473;DHT22;46318;52.716;6.444;2024-03-17T11:00:06;9.90;82.80
60473;DHT22;46318;52.716;6.444;2024-03-17T11:02:40;10.00;83.40
60473;DHT22;46318;52.716;6.444;2024-03-17T11:05:24;10.00;83.50
60473;DHT22;46318;52.716;6.444;2024-03-17T11:07:52;10.00;81.90
60473;DHT22;46318;52.716;6.444;2024-03-17T11:10:25;10.10;82.50
60473;DHT22;46318;52.716;6.444;2024-03-17T11:13:02;10.10;81.10
60473;DHT22;46318;52.716;6.444;2024-03-17T11:21:01;10.20;80.00
60473;DHT22;46318;52.716;6.444;2024-03-17T11:23:58;10.20;79.60
60473;DHT22;46318;52.716;6.444;2024-03-17T11:26:32;10.30;80.00
60473;DHT22;46318;52.716;6.444;2024-03-17T11:29:04;10.40;79.30
60473;DHT22;46318;52.716;6.444;2024-03-17T11:31:37;10.40;80.10
60473;DHT22;46318;52.716;6.444;2024-03-17T11:34:35;10.40;80.10
60473;DHT22;46318;52.716;6.444;2024-03-17T11:37:07;10.50;78.60
60473;DHT22;46318;52.716;6.444;2024-03-17T11:39:53;10.50;79.60
60473;DHT22;46318;52.716;6.444;2024-03-17T11:42:26;10.50;78.40
60473;DHT22;46318;52.716;6.444;2024-03-17T11:47:42;10.60;78.00
60473;DHT22;46318;52.716;6.444;2024-03-17T11:50:10;10.60;77.10
60473;DHT22;46318;52.716;6.444;2024-03-17T11:52:37;10.60;77.80
60473;DHT22;46318;52.716;6.444;2024-03-17T11:55:10;10.70;78.20
60473;DHT22;46318;52.716;6.444;2024-03-17T11:57:41;10.70;78.10
60473;DHT22;46318;52.716;6.444;2024-03-17T12:00:19;10.80;77.60
60473;DHT22;46318;52.716;6.444;2024-03-17T12:02:48;10.80;76.80
60473;DHT22;46318;52.716;6.444;2024-03-17T12:05:15;10.80;77.20
60473;DHT22;46318;52.716;6.444;2024-03-17T12:07:44;10.80;77.40
60473;DHT22;46318;52.716;6.444;2024-03-17T12:10:11;10.90;77.60
60473;DHT22;46318;52.716;6.444;2024-03-17T12:12:39;10.90;77.70
60473;DHT22;46318;52.716;6.444;2024-03-17T12:15:17;10.90;78.40
60473;DHT22;46318;52.716;6.444;2024-03-17T12:17:45;11.00;77.30
60473;DHT22;46318;52.716;6.444;2024-03-17T12:20:18;11.00;77.50
60473;DHT22;46318;52.716;6.444;2024-03-17T12:22:46;11.00;76.60
60473;DHT22;46318;52.716;6.444;2024-03-17T12:25:18;11.00;76.90
60473;DHT22;46318;52.716;6.444;2024-03-17T12:27:47;11.10;77.30
60473;DHT22;46318;52.716;6.444;2024-03-17T12:30:14;11.10;77.20
60473;DHT22;46318;52.716;6.444;2024-03-17T12:32:41;11.10;77.20
60473;DHT22;46318;52.716;6.444;2024-03-17T12:35:15;11.10;76.30
60473;DHT22;46318;52.716;6.444;2024-03-17T12:37:44;11.20;76.80
60473;DHT22;46318;52.716;6.444;2024-03-17T12:40:21;11.20;76.10
60473;DHT22;46318;52.716;6.444;2024-03-17T12:42:49;11.30;75.40
60473;DHT22;46318;52.716;6.444;2024-03-17T12:45:23;11.30;75.30
60473;DHT22;46318;52.716;6.444;2024-03-17T12:47:50;11.30;76.40
60473;DHT22;46318;52.716;6.444;2024-03-17T12:50:17;11.40;76.00
60473;DHT22;46318;52.716;6.444;2024-03-17T12:52:54;11.40;75.10
60473;DHT22;46318;52.716;6.444;2024-03-17T12:55:21;11.50;74.00
60473;DHT22;46318;52.716;6.444;2024-03-17T12:58:07;11.50;74.60
60473;DHT22;46318;52.716;6.444;2024-03-17T13:01:04;11.50;74.60
60473;DHT22;46318;52.716;6.444;2024-03-17T13:03:33;11.60;74.00
60473;DHT22;46318;52.716;6.444;2024-03-17T13:06:00;11.60;74.10
60473;DHT22;46318;52.716;6.444;2024-03-17T13:08:35;11.60;73.90
60473;DHT22;46318;52.716;6.444;2024-03-17T13:11:01;11.70;73.20
60473;DHT22;46318;52.716;6.444;2024-03-17T13:13:29;11.70;73.20
60473;DHT22;46318;52.716;6.444;2024-03-17T13:15:55;11.70;73.40
60473;DHT22;46318;52.716;6.444;2024-03-17T13:18:21;11.70;72.80
60473;DHT22;46318;52.716;6.444;2024-03-17T13:20:58;11.80;71.60
60473;DHT22;46318;52.716;6.444;2024-03-17T13:23:37;11.80;70.80
60473;DHT22;46318;52.716;6.444;2024-03-17T13:26:03;11.80;71.70
60473;DHT22;46318;52.716;6.444;2024-03-17T13:28:29;11.80;71.90
60473;DHT22;46318;52.716;6.444;2024-03-17T13:30:57;11.80;71.10
60473;DHT22;46318;52.716;6.444;2024-03-17T13:33:23;11.90;71.30
60473;DHT22;46318;52.716;6.444;2024-03-17T13:35:52;11.90;71.60
60473;DHT22;46318;52.716;6.444;2024-03-17T13:38:23;11.90;71.80
60473;DHT22;46318;52.716;6.444;2024-03-17T13:40:49;12.00;72.10
60473;DHT22;46318;52.716;6.444;2024-03-17T13:43:17;12.00;71.80
60473;DHT22;46318;52.716;6.444;2024-03-17T13:45:43;12.00;72.40
60473;DHT22;46318;52.716;6.444;2024-03-17T13:48:10;12.10;71.60
60473;DHT22;46318;52.716;6.444;2024-03-17T13:50:40;12.10;71.20
60473;DHT22;46318;52.716;6.444;2024-03-17T13:53:10;12.10;71.50
60473;DHT22;46318;52.716;6.444;2024-03-17T13:55:36;12.10;71.20
60473;DHT22;46318;52.716;6.444;2024-03-17T13:58:03;12.10;71.20
60473;DHT22;46318;52.716;6.444;2024-03-17T14:00:30;12.10;71.40
60473;DHT22;46318;52.716;6.444;2024-03-17T14:02:57;12.20;71.50
60473;DHT22;46318;52.716;6.444;2024-03-17T14:05:25;12.20;71.40
60473;DHT22;46318;52.716;6.444;2024-03-17T14:07:53;12.20;71.00
60473;DHT22;46318;52.716;6.444;2024-03-17T14:10:24;12.20;71.30
60473;DHT22;46318;52.716;6.444;2024-03-17T14:12:50;12.20;71.90
60473;DHT22;46318;52.716;6.444;2024-03-17T14:15:25;12.20;71.80
60473;DHT22;46318;52.716;6.444;2024-03-17T14:18:00;12.20;71.70
60473;DHT22;46318;52.716;6.444;2024-03-17T14:20:26;12.20;70.90
60473;DHT22;46318;52.716;6.444;2024-03-17T14:22:52;12.20;71.70
60473;DHT22;46318;52.716;6.444;2024-03-17T14:25:20;12.20;71.40
60473;DHT22;46318;52.716;6.444;2024-03-17T14:27:50;12.20;71.40
60473;DHT22;46318;52.716;6.444;2024-03-17T14:30:18;12.20;71.10
60473;DHT22;46318;52.716;6.444;2024-03-17T14:32:46;12.20;70.70
60473;DHT22;46318;52.716;6.444;2024-03-17T14:35:17;12.20;70.40
60473;DHT22;46318;52.716;6.444;2024-03-17T14:37:46;12.20;70.10
60473;DHT22;46318;52.716;6.444;2024-03-17T14:40:16;12.20;70.20
60473;DHT22;46318;52.716;6.444;2024-03-17T14:42:54;12.20;70.50
60473;DHT22;46318;52.716;6.444;2024-03-17T14:45:21;12.20;70.00
60473;DHT22;46318;52.716;6.444;2024-03-17T14:47:50;12.20;70.20
60473;DHT22;46318;52.716;6.444;2024-03-17T14:50:23;12.20;69.70
60473;DHT22;46318;52.716;6.444;2024-03-17T14:52:52;12.20;69.60
60473;DHT22;46318;52.716;6.444;2024-03-17T14:55:18;12.20;69.80
60473;DHT22;46318;52.716;6.444;2024-03-17T14:57:45;12.20;70.00
60473;DHT22;46318;52.716;6.444;2024-03-17T15:00:14;12.20;70.00
60473;DHT22;46318;52.716;6.444;2024-03-17T15:02:46;12.20;70.80
60473;DHT22;46318;52.716;6.444;2024-03-17T15:05:15;12.20;71.00
60473;DHT22;46318;52.716;6.444;2024-03-17T15:07:43;12.20;70.50
60473;DHT22;46318;52.716;6.444;2024-03-17T15:10:09;12.20;70.30
60473;DHT22;46318;52.716;6.444;2024-03-17T15:12:35;12.20;70.20
60473;DHT22;46318;52.716;6.444;2024-03-17T15:15:06;12.20;70.30
60473;DHT22;46318;52.716;6.444;2024-03-17T15:17:34;12.20;70.60
60473;DHT22;46318;52.716;6.444;2024-03-17T15:20:00;12.20;71.20
60473;DHT22;46318;52.716;6.444;2024-03-17T15:22:26;12.20;70.90
60473;DHT22;46318;52.716;6.444;2024-03-17T15:24:53;12.20;71.10
60473;DHT22;46318;52.716;6.444;2024-03-17T15:27:18;12.10;71.10
60473;DHT22;46318;52.716;6.444;2024-03-17T15:29:44;12.20;71.50
60473;DHT22;46318;52.716;6.444;2024-03-17T15:32:10;12.20;71.70
60473;DHT22;46318;52.716;6.444;2024-03-17T15:34:40;12.20;71.40
60473;DHT22;46318;52.716;6.444;2024-03-17T15:37:06;12.20;71.50
60473;DHT22;46318;52.716;6.444;2024-03-17T15:39:37;12.20;71.20
60473;DHT22;46318;52.716;6.444;2024-03-17T15:42:03;12.10;70.90
60473;DHT22;46318;52.716;6.444;2024-03-17T15:44:29;12.10;71.20
60473;DHT22;46318;52.716;6.444;2024-03-17T15:46:55;12.10;71.00
60473;DHT22;46318;52.716;6.444;2024-03-17T15:49:21;12.10;71.10
60473;DHT22;46318;52.716;6.444;2024-03-17T15:51:47;12.10;71.10
60473;DHT22;46318;52.716;6.444;2024-03-17T15:54:13;12.10;71.20
60473;DHT22;46318;52.716;6.444;2024-03-17T15:56:41;12.00;70.80